createdAt,value
2017-04-30T00:00:57.109Z,0
2017-04-30T00:02:19.282Z,0
2017-04-30T00:03:40.902Z,0
2017-04-30T00:05:03.048Z,0
2017-04-30T00:06:25.138Z,0
2017-04-30T00:07:47.411Z,0
2017-04-30T00:09:09.257Z,0
2017-04-30T00:10:31.404Z,0
2017-04-30T00:11:53.811Z,0
2017-04-30T00:13:15.978Z,0
2017-04-30T00:14:37.599Z,0
2017-04-30T00:16:00.119Z,0
2017-04-30T00:17:21.879Z,0
2017-04-30T00:18:44.348Z,0
2017-04-30T00:20:05.854Z,0
2017-04-30T00:21:27.369Z,0
2017-04-30T00:22:49.759Z,0
2017-04-30T00:24:11.249Z,0
2017-04-30T00:25:33.186Z,0
2017-04-30T00:26:55.120Z,0
2017-04-30T00:28:16.880Z,0
2017-04-30T00:29:38.421Z,0
2017-04-30T00:31:00.246Z,0
2017-04-30T00:32:22.714Z,0
2017-04-30T00:33:44.819Z,0
2017-04-30T00:35:06.009Z,0
2017-04-30T00:36:28.201Z,0
2017-04-30T00:37:50.130Z,0
2017-04-30T00:39:12.900Z,0
2017-04-30T00:40:34.748Z,0
2017-04-30T00:41:57.191Z,0
2017-04-30T00:43:19.665Z,0
2017-04-30T00:44:41.820Z,0
2017-04-30T00:46:03.643Z,0
2017-04-30T00:47:25.470Z,0
2017-04-30T00:48:47.332Z,0
2017-04-30T00:50:09.749Z,0
2017-04-30T00:51:32.238Z,0
2017-04-30T00:52:54.097Z,0
2017-04-30T00:54:16.246Z,0
2017-04-30T00:55:38.650Z,0
2017-04-30T00:57:00.837Z,0
2017-04-30T00:58:22.969Z,0
2017-04-30T00:59:45.425Z,0
2017-04-30T01:01:07.168Z,0
2017-04-30T01:02:28.716Z,0
2017-04-30T01:03:49.900Z,0
2017-04-30T01:05:12.078Z,0
2017-04-30T01:06:33.274Z,0
2017-04-30T01:07:55.450Z,0
2017-04-30T01:09:16.983Z,0
2017-04-30T01:10:38.826Z,0
2017-04-30T01:12:01.327Z,0
2017-04-30T01:13:22.843Z,0
2017-04-30T01:14:44.680Z,0
2017-04-30T01:16:06.174Z,0
2017-04-30T01:17:28.539Z,0
2017-04-30T01:18:50.682Z,0
2017-04-30T01:20:13.009Z,0
2017-04-30T01:21:34.498Z,0
2017-04-30T01:22:56.578Z,0
2017-04-30T01:24:18.459Z,0
2017-04-30T01:25:40.008Z,0
2017-04-30T01:27:01.846Z,0
2017-04-30T01:28:23.301Z,0
2017-04-30T01:29:45.129Z,0
2017-04-30T01:31:06.326Z,0
2017-04-30T01:32:28.460Z,0
2017-04-30T01:33:50.299Z,0
2017-04-30T01:35:11.820Z,0
2017-04-30T01:36:33.969Z,0
2017-04-30T01:37:55.529Z,0
2017-04-30T01:39:17.726Z,0
2017-04-30T01:40:39.562Z,0
2017-04-30T01:42:01.388Z,0
2017-04-30T01:43:22.908Z,0
2017-04-30T01:44:44.998Z,0
2017-04-30T01:46:06.174Z,0
2017-04-30T01:47:28.050Z,0
2017-04-30T01:48:49.556Z,0
2017-04-30T01:50:11.425Z,0
2017-04-30T01:51:33.459Z,0
2017-04-30T01:52:54.982Z,0
2017-04-30T01:54:17.146Z,0
2017-04-30T01:55:38.992Z,0
2017-04-30T01:57:00.856Z,0
2017-04-30T01:58:23.324Z,0
2017-04-30T01:59:45.463Z,0
2017-04-30T02:01:08.237Z,0
2017-04-30T02:02:29.768Z,0
2017-04-30T02:03:51.928Z,0
2017-04-30T02:05:13.880Z,0
2017-04-30T02:06:35.641Z,0
2017-04-30T02:07:57.540Z,0
2017-04-30T02:09:19.049Z,0
2017-04-30T02:10:41.209Z,0
2017-04-30T02:12:03.335Z,0
2017-04-30T02:13:24.850Z,0
2017-04-30T02:14:46.359Z,0
2017-04-30T02:16:08.488Z,0
2017-04-30T02:17:30.979Z,0
2017-04-30T02:18:52.520Z,0
2017-04-30T02:20:13.796Z,0
2017-04-30T02:21:35.947Z,0
2017-04-30T02:22:58.501Z,0
2017-04-30T02:24:20.050Z,0
2017-04-30T02:25:42.487Z,0
2017-04-30T02:27:03.871Z,0
2017-04-30T02:28:25.953Z,0
2017-04-30T02:29:47.791Z,0
2017-04-30T02:31:09.607Z,0
2017-04-30T02:32:31.129Z,0
2017-04-30T02:33:53.521Z,0
2017-04-30T02:35:15.329Z,0
2017-04-30T02:36:36.837Z,0
2017-04-30T02:37:58.674Z,0
2017-04-30T02:39:21.219Z,0
2017-04-30T02:40:43.358Z,0
2017-04-30T02:42:05.180Z,0
2017-04-30T02:43:27.011Z,0
2017-04-30T02:44:49.816Z,0
2017-04-30T02:46:12.077Z,0
2017-04-30T02:47:33.381Z,0
2017-04-30T02:48:54.899Z,0
2017-04-30T02:50:17.656Z,0
2017-04-30T02:51:39.488Z,0
2017-04-30T02:53:01.949Z,0
2017-04-30T02:54:23.783Z,0
2017-04-30T02:55:45.868Z,0
2017-04-30T02:57:07.518Z,0
2017-04-30T02:58:29.668Z,0
2017-04-30T02:59:51.189Z,0
2017-04-30T03:01:13.658Z,0
2017-04-30T03:02:35.948Z,0
2017-04-30T03:03:57.463Z,0
2017-04-30T03:05:19.341Z,0
2017-04-30T03:06:41.459Z,0
2017-04-30T03:08:03.289Z,0
2017-04-30T03:09:25.418Z,0
2017-04-30T03:10:47.528Z,0
2017-04-30T03:12:09.378Z,0
2017-04-30T03:13:31.219Z,0
2017-04-30T03:14:53.658Z,0
2017-04-30T03:16:14.929Z,0
2017-04-30T03:17:37.069Z,0
2017-04-30T03:18:58.580Z,0
2017-04-30T03:20:20.108Z,0
2017-04-30T03:21:41.614Z,0
2017-04-30T03:23:03.426Z,0
2017-04-30T03:24:25.609Z,0
2017-04-30T03:25:47.736Z,0
2017-04-30T03:27:09.875Z,0
2017-04-30T03:28:32.368Z,0
2017-04-30T03:29:53.943Z,0
2017-04-30T03:31:15.438Z,0
2017-04-30T03:32:37.265Z,0
2017-04-30T03:34:00.114Z,0
2017-04-30T03:35:22.047Z,0
2017-04-30T03:36:43.883Z,0
2017-04-30T03:38:05.419Z,0
2017-04-30T03:39:27.829Z,0
2017-04-30T03:40:49.373Z,0
2017-04-30T03:42:11.029Z,5
2017-04-30T03:43:32.883Z,5
2017-04-30T03:44:54.980Z,5
2017-04-30T03:46:17.103Z,5
2017-04-30T03:47:38.640Z,5
2017-04-30T03:49:00.877Z,5
2017-04-30T03:50:23.671Z,10
2017-04-30T03:51:45.792Z,10
2017-04-30T03:53:07.295Z,10
2017-04-30T03:54:28.858Z,10
2017-04-30T03:55:50.778Z,10
2017-04-30T03:57:12.918Z,15
2017-04-30T03:58:34.431Z,15
2017-04-30T03:59:56.068Z,15
2017-04-30T04:01:18.836Z,20
2017-04-30T04:02:40.645Z,20
2017-04-30T04:04:02.139Z,20
2017-04-30T04:05:24.289Z,25
2017-04-30T04:06:46.989Z,25
2017-04-30T04:08:09.136Z,25
2017-04-30T04:09:30.629Z,30
2017-04-30T04:10:52.498Z,30
2017-04-30T04:12:14.544Z,35
2017-04-30T04:13:36.367Z,35
2017-04-30T04:14:58.508Z,35
2017-04-30T04:16:21.040Z,40
2017-04-30T04:17:43.176Z,40
2017-04-30T04:19:05.013Z,45
2017-04-30T04:20:26.814Z,45
2017-04-30T04:21:48.638Z,45
2017-04-30T04:23:10.078Z,50
2017-04-30T04:24:31.303Z,50
2017-04-30T04:25:53.129Z,55
2017-04-30T04:27:15.275Z,55
2017-04-30T04:28:37.038Z,55
2017-04-30T04:29:58.579Z,60
2017-04-30T04:31:20.122Z,60
2017-04-30T04:32:41.996Z,65
2017-04-30T04:34:04.131Z,65
2017-04-30T04:35:25.635Z,65
2017-04-30T04:36:47.117Z,70
2017-04-30T04:38:08.981Z,70
2017-04-30T04:39:30.887Z,75
2017-04-30T04:40:53.025Z,75
2017-04-30T04:42:14.838Z,75
2017-04-30T04:43:36.658Z,80
2017-04-30T04:44:58.735Z,80
2017-04-30T04:46:21.217Z,85
2017-04-30T04:47:43.358Z,85
2017-04-30T04:49:04.919Z,85
2017-04-30T04:50:26.989Z,90
2017-04-30T04:51:49.211Z,90
2017-04-30T04:53:11.668Z,90
2017-04-30T04:54:33.192Z,95
2017-04-30T04:55:55.020Z,95
2017-04-30T04:57:17.161Z,95
2017-04-30T04:58:38.686Z,100
2017-04-30T05:00:00.839Z,100
2017-04-30T05:01:23.249Z,105
2017-04-30T05:02:45.388Z,105
2017-04-30T05:04:07.515Z,105
2017-04-30T05:05:29.691Z,110
2017-04-30T05:06:51.624Z,110
2017-04-30T05:08:13.448Z,110
2017-04-30T05:09:35.287Z,115
2017-04-30T05:10:57.168Z,125
2017-04-30T05:12:19.657Z,135
2017-04-30T05:13:41.190Z,145
2017-04-30T05:15:03.328Z,160
2017-04-30T05:16:24.818Z,185
2017-04-30T05:17:46.900Z,460
2017-04-30T05:19:08.475Z,745
2017-04-30T05:20:30.928Z,760
2017-04-30T05:21:53.458Z,720
2017-04-30T05:23:14.946Z,725
2017-04-30T05:24:37.100Z,725
2017-04-30T05:25:58.919Z,730
2017-04-30T05:27:20.958Z,705
2017-04-30T05:28:42.794Z,730
2017-04-30T05:30:04.328Z,705
2017-04-30T05:31:26.789Z,710
2017-04-30T05:32:48.946Z,700
2017-04-30T05:34:11.744Z,680
2017-04-30T05:35:34.179Z,645
2017-04-30T05:36:56.330Z,645
2017-04-30T05:38:18.289Z,630
2017-04-30T05:39:40.748Z,605
2017-04-30T05:41:02.580Z,595
2017-04-30T05:42:24.732Z,575
2017-04-30T05:43:46.686Z,575
2017-04-30T05:45:08.848Z,570
2017-04-30T05:46:30.148Z,570
2017-04-30T05:47:52.107Z,570
2017-04-30T05:49:13.956Z,560
2017-04-30T05:50:36.238Z,555
2017-04-30T05:51:58.456Z,575
2017-04-30T05:53:20.409Z,585
2017-04-30T05:54:41.940Z,550
2017-04-30T05:56:04.725Z,530
2017-04-30T05:57:26.888Z,500
2017-04-30T05:58:49.051Z,480
2017-04-30T06:00:11.227Z,470
2017-04-30T06:01:33.746Z,465
2017-04-30T06:02:55.889Z,455
2017-04-30T06:04:18.048Z,455
2017-04-30T06:05:40.335Z,440
2017-04-30T06:07:02.847Z,435
2017-04-30T06:08:24.788Z,435
2017-04-30T06:09:46.645Z,430
2017-04-30T06:11:08.157Z,435
2017-04-30T06:12:30.280Z,440
2017-04-30T06:13:52.570Z,435
2017-04-30T06:15:15.070Z,435
2017-04-30T06:16:37.640Z,440
2017-04-30T06:18:00.407Z,440
2017-04-30T06:19:22.567Z,440
2017-04-30T06:20:44.727Z,435
2017-04-30T06:22:06.972Z,440
2017-04-30T06:23:28.497Z,440
2017-04-30T06:24:50.350Z,440
2017-04-30T06:26:12.502Z,440
2017-04-30T06:27:34.039Z,445
2017-04-30T06:28:56.838Z,445
2017-04-30T06:30:18.991Z,445
2017-04-30T06:31:41.460Z,445
2017-04-30T06:33:02.999Z,445
2017-04-30T06:34:25.457Z,445
2017-04-30T06:35:46.997Z,445
2017-04-30T06:37:09.167Z,440
2017-04-30T06:38:31.028Z,445
2017-04-30T06:39:53.128Z,440
2017-04-30T06:41:15.307Z,440
2017-04-30T06:42:37.198Z,445
2017-04-30T06:43:59.064Z,450
2017-04-30T06:45:20.960Z,445
2017-04-30T06:46:42.827Z,440
2017-04-30T06:48:04.427Z,455
2017-04-30T06:49:26.960Z,440
2017-04-30T06:50:49.467Z,445
2017-04-30T06:52:11.618Z,445
2017-04-30T06:53:33.157Z,450
2017-04-30T06:54:55.008Z,450
2017-04-30T06:56:17.218Z,455
2017-04-30T06:57:39.480Z,445
2017-04-30T06:59:01.958Z,445
2017-04-30T07:00:23.808Z,450
2017-04-30T07:01:45.989Z,455
2017-04-30T07:03:08.007Z,450
2017-04-30T07:04:30.118Z,445
2017-04-30T07:05:51.667Z,445
2017-04-30T07:07:14.127Z,445
2017-04-30T07:08:35.966Z,450
2017-04-30T07:09:58.138Z,450
2017-04-30T07:11:19.986Z,450
2017-04-30T07:12:41.917Z,455
2017-04-30T07:14:04.170Z,455
2017-04-30T07:15:26.340Z,445
2017-04-30T07:16:48.496Z,455
2017-04-30T07:18:10.713Z,460
2017-04-30T07:19:33.020Z,455
2017-04-30T07:20:54.907Z,445
2017-04-30T07:22:17.068Z,445
2017-04-30T07:23:39.267Z,445
2017-04-30T07:25:01.460Z,450
2017-04-30T07:26:23.938Z,450
2017-04-30T07:27:45.781Z,450
2017-04-30T07:29:08.310Z,435
2017-04-30T07:30:30.780Z,425
2017-04-30T07:31:52.638Z,430
2017-04-30T07:33:15.216Z,425
2017-04-30T07:34:37.768Z,440
2017-04-30T07:35:59.645Z,440
2017-04-30T07:37:21.857Z,435
2017-04-30T07:38:44.117Z,435
2017-04-30T07:40:06.588Z,440
2017-04-30T07:41:28.744Z,435
2017-04-30T07:42:51.308Z,435
2017-04-30T07:44:13.187Z,435
2017-04-30T07:45:35.957Z,440
2017-04-30T07:46:58.190Z,450
2017-04-30T07:48:20.675Z,465
2017-04-30T07:49:42.240Z,480
2017-04-30T07:51:05.041Z,525
2017-04-30T07:52:26.589Z,565
2017-04-30T07:53:48.763Z,580
2017-04-30T07:55:10.993Z,615
2017-04-30T07:56:33.456Z,685
2017-04-30T07:57:55.001Z,685
2017-04-30T07:59:16.860Z,575
2017-04-30T08:00:38.763Z,260
2017-04-30T08:02:01.299Z,190
2017-04-30T08:03:23.479Z,180
2017-04-30T08:04:45.108Z,180
2017-04-30T08:06:06.628Z,175
2017-04-30T08:07:29.158Z,175
2017-04-30T08:08:51.382Z,175
2017-04-30T08:10:13.318Z,175
2017-04-30T08:11:35.538Z,175
2017-04-30T08:12:58.228Z,170
2017-04-30T08:14:19.560Z,170
2017-04-30T08:15:41.747Z,170
2017-04-30T08:17:03.686Z,175
2017-04-30T08:18:25.822Z,170
2017-04-30T08:19:48.322Z,170
2017-04-30T08:21:10.469Z,170
2017-04-30T08:22:32.640Z,170
2017-04-30T08:23:54.395Z,170
2017-04-30T08:25:16.578Z,170
2017-04-30T08:26:38.773Z,170
2017-04-30T08:28:00.958Z,170
2017-04-30T08:29:23.368Z,170
2017-04-30T08:30:45.518Z,170
2017-04-30T08:32:08.012Z,170
2017-04-30T08:33:30.158Z,170
2017-04-30T08:34:52.920Z,170
2017-04-30T08:36:15.091Z,170
2017-04-30T08:37:36.941Z,170
2017-04-30T08:38:58.795Z,175
2017-04-30T08:40:20.738Z,170
2017-04-30T08:41:42.952Z,175
2017-04-30T08:43:04.999Z,175
2017-04-30T08:44:27.229Z,170
2017-04-30T08:45:49.696Z,170
2017-04-30T08:47:11.918Z,170
2017-04-30T08:48:33.447Z,170
2017-04-30T08:49:55.424Z,175
2017-04-30T08:51:17.499Z,170
2017-04-30T08:52:39.989Z,170
2017-04-30T08:54:02.460Z,170
2017-04-30T08:55:24.420Z,170
2017-04-30T08:56:46.999Z,170
2017-04-30T08:58:09.230Z,170
2017-04-30T08:59:30.816Z,170
2017-04-30T09:00:53.142Z,170
2017-04-30T09:02:16.041Z,170
2017-04-30T09:03:37.669Z,170
2017-04-30T09:04:59.233Z,170
2017-04-30T09:06:21.420Z,165
2017-04-30T09:07:44.157Z,165
2017-04-30T09:09:06.309Z,165
2017-04-30T09:10:28.811Z,165
2017-04-30T09:11:50.759Z,165
2017-04-30T09:13:13.660Z,165
2017-04-30T09:14:36.128Z,165
2017-04-30T09:15:58.299Z,165
2017-04-30T09:17:20.787Z,165
2017-04-30T09:18:43.304Z,165
2017-04-30T09:20:05.538Z,165
2017-04-30T09:21:27.708Z,165
2017-04-30T09:22:49.560Z,165
2017-04-30T09:24:12.052Z,165
2017-04-30T09:25:34.200Z,165
2017-04-30T09:26:56.715Z,165
2017-04-30T09:28:19.020Z,165
2017-04-30T09:29:41.785Z,165
2017-04-30T09:31:03.315Z,165
2017-04-30T09:32:25.552Z,165
2017-04-30T09:33:48.028Z,165
2017-04-30T09:35:09.626Z,165
2017-04-30T09:36:31.940Z,165
2017-04-30T09:37:54.182Z,165
2017-04-30T09:39:16.369Z,165
2017-04-30T09:40:38.772Z,165
2017-04-30T09:42:00.971Z,165
2017-04-30T09:43:23.468Z,165
2017-04-30T09:44:45.640Z,165
2017-04-30T09:46:07.731Z,165
2017-04-30T09:47:29.879Z,165
2017-04-30T09:48:52.036Z,165
2017-04-30T09:50:14.520Z,165
2017-04-30T09:51:36.601Z,165
2017-04-30T09:52:58.471Z,165
2017-04-30T09:54:19.990Z,165
2017-04-30T09:55:42.198Z,165
2017-04-30T09:57:04.377Z,165
2017-04-30T09:58:25.910Z,165
2017-04-30T09:59:47.779Z,165
2017-04-30T10:01:09.638Z,165
2017-04-30T10:02:31.467Z,165
2017-04-30T10:03:54.100Z,165
2017-04-30T10:05:16.589Z,165
2017-04-30T10:06:39.084Z,165
2017-04-30T10:08:00.948Z,165
2017-04-30T10:09:23.103Z,165
2017-04-30T10:10:44.929Z,165
2017-04-30T10:12:07.502Z,165
2017-04-30T10:13:30.371Z,165
2017-04-30T10:14:52.610Z,165
2017-04-30T10:16:14.142Z,160
2017-04-30T10:17:36.324Z,160
2017-04-30T10:18:58.419Z,160
2017-04-30T10:20:19.929Z,160
2017-04-30T10:21:42.080Z,160
2017-04-30T10:23:04.231Z,160
2017-04-30T10:24:26.990Z,160
2017-04-30T10:25:49.222Z,160
2017-04-30T10:27:11.700Z,160
2017-04-30T10:28:34.225Z,160
2017-04-30T10:29:56.050Z,160
2017-04-30T10:31:18.198Z,160
2017-04-30T10:32:40.040Z,160
2017-04-30T10:34:02.270Z,160
2017-04-30T10:35:24.414Z,165
2017-04-30T10:36:46.780Z,165
2017-04-30T10:38:08.990Z,165
2017-04-30T10:39:30.829Z,165
2017-04-30T10:40:52.961Z,170
2017-04-30T10:42:15.419Z,160
2017-04-30T10:43:37.610Z,165
2017-04-30T10:44:59.768Z,165
2017-04-30T10:46:22.159Z,165
2017-04-30T10:47:43.361Z,165
2017-04-30T10:49:05.844Z,165
2017-04-30T10:50:28.057Z,165
2017-04-30T10:51:50.766Z,165
2017-04-30T10:53:12.753Z,165
2017-04-30T10:54:35.090Z,165
2017-04-30T10:55:57.318Z,165
2017-04-30T10:57:19.878Z,165
2017-04-30T10:58:41.745Z,165
2017-04-30T11:00:03.291Z,165
2017-04-30T11:01:25.756Z,165
2017-04-30T11:02:48.610Z,165
2017-04-30T11:04:11.071Z,165
2017-04-30T11:05:32.926Z,165
2017-04-30T11:06:54.453Z,165
2017-04-30T11:08:16.878Z,165
2017-04-30T11:09:39.091Z,165
2017-04-30T11:11:01.685Z,165
2017-04-30T11:12:23.838Z,165
2017-04-30T11:13:46.252Z,165
2017-04-30T11:15:08.119Z,165
2017-04-30T11:16:30.350Z,165
2017-04-30T11:17:52.513Z,170
2017-04-30T11:19:14.805Z,170
2017-04-30T11:20:36.989Z,170
2017-04-30T11:21:59.172Z,170
2017-04-30T11:23:21.021Z,170
2017-04-30T11:24:43.277Z,170
2017-04-30T11:26:04.857Z,170
2017-04-30T11:27:27.459Z,170
2017-04-30T11:28:49.637Z,170
2017-04-30T11:30:11.090Z,170
2017-04-30T11:31:33.354Z,170
2017-04-30T11:32:55.522Z,170
2017-04-30T11:34:17.738Z,165
2017-04-30T11:35:40.328Z,165
2017-04-30T11:37:02.801Z,165
2017-04-30T11:38:25.060Z,165
2017-04-30T11:39:46.901Z,165
2017-04-30T11:41:09.039Z,165
2017-04-30T11:42:30.927Z,165
2017-04-30T11:43:53.108Z,165
2017-04-30T11:45:15.609Z,165
2017-04-30T11:46:38.119Z,165
2017-04-30T11:48:00.277Z,165
2017-04-30T11:49:22.139Z,165
2017-04-30T11:50:44.001Z,165
2017-04-30T11:52:06.741Z,165
2017-04-30T11:53:28.600Z,165
2017-04-30T11:54:51.088Z,170
2017-04-30T11:56:12.999Z,170
2017-04-30T11:57:35.509Z,170
2017-04-30T11:58:57.670Z,170
2017-04-30T12:00:19.845Z,170
2017-04-30T12:01:41.061Z,170
2017-04-30T12:03:03.898Z,170
2017-04-30T12:04:25.409Z,170
2017-04-30T12:05:47.461Z,170
2017-04-30T12:07:09.309Z,170
2017-04-30T12:08:32.078Z,170
2017-04-30T12:09:53.930Z,175
2017-04-30T12:11:15.818Z,175
2017-04-30T12:12:37.760Z,175
2017-04-30T12:14:00.600Z,175
2017-04-30T12:15:22.517Z,175
2017-04-30T12:16:44.369Z,175
2017-04-30T12:18:06.230Z,175
2017-04-30T12:19:29.104Z,180
2017-04-30T12:20:51.300Z,180
2017-04-30T12:22:12.839Z,180
2017-04-30T12:23:34.700Z,180
2017-04-30T12:24:56.897Z,180
2017-04-30T12:26:19.133Z,180
2017-04-30T12:27:41.600Z,175
2017-04-30T12:29:03.484Z,175
2017-04-30T12:30:25.908Z,175
2017-04-30T12:31:47.791Z,170
2017-04-30T12:33:09.971Z,170
2017-04-30T12:34:32.120Z,175
2017-04-30T12:35:54.319Z,175
2017-04-30T12:37:15.630Z,175
2017-04-30T12:38:37.849Z,175
2017-04-30T12:39:59.679Z,175
2017-04-30T12:41:21.571Z,175
2017-04-30T12:42:43.438Z,170
2017-04-30T12:44:05.599Z,170
2017-04-30T12:45:27.438Z,170
2017-04-30T12:46:49.573Z,175
2017-04-30T12:48:11.779Z,175
2017-04-30T12:49:33.805Z,175
2017-04-30T12:50:55.768Z,175
2017-04-30T12:52:18.201Z,175
2017-04-30T12:53:40.023Z,180
2017-04-30T12:55:02.309Z,185
2017-04-30T12:56:24.250Z,180
2017-04-30T12:57:46.660Z,185
2017-04-30T12:59:08.518Z,185
2017-04-30T13:00:31.164Z,185
2017-04-30T13:01:53.349Z,185
2017-04-30T13:03:16.209Z,190
2017-04-30T13:04:38.690Z,195
2017-04-30T13:06:00.868Z,200
2017-04-30T13:07:23.087Z,205
2017-04-30T13:08:45.275Z,205
2017-04-30T13:10:07.135Z,210
2017-04-30T13:11:28.981Z,210
2017-04-30T13:12:51.577Z,210
2017-04-30T13:14:13.387Z,210
2017-04-30T13:15:35.237Z,210
2017-04-30T13:16:56.800Z,210
2017-04-30T13:18:18.969Z,210
2017-04-30T13:19:41.548Z,205
2017-04-30T13:21:04.027Z,200
2017-04-30T13:22:25.884Z,200
2017-04-30T13:23:48.382Z,195
2017-04-30T13:25:10.952Z,190
2017-04-30T13:26:32.487Z,190
2017-04-30T13:27:54.653Z,195
2017-04-30T13:29:16.578Z,190
2017-04-30T13:30:38.678Z,190
2017-04-30T13:32:00.837Z,185
2017-04-30T13:33:23.000Z,185
2017-04-30T13:34:44.927Z,185
2017-04-30T13:36:06.768Z,185
2017-04-30T13:37:28.637Z,180
2017-04-30T13:38:51.119Z,180
2017-04-30T13:40:13.318Z,180
2017-04-30T13:41:35.419Z,175
2017-04-30T13:42:57.588Z,175
2017-04-30T13:44:19.150Z,175
2017-04-30T13:45:41.337Z,175
2017-04-30T13:47:03.360Z,170
2017-04-30T13:48:25.228Z,170
2017-04-30T13:49:46.548Z,170
2017-04-30T13:51:08.736Z,170
2017-04-30T13:52:31.229Z,170
2017-04-30T13:53:53.725Z,170
2017-04-30T13:55:15.896Z,170
2017-04-30T13:56:38.077Z,165
2017-04-30T13:58:00.268Z,165
2017-04-30T13:59:22.522Z,165
2017-04-30T14:00:44.124Z,165
2017-04-30T14:02:05.978Z,160
2017-04-30T14:03:28.105Z,160
2017-04-30T14:04:50.040Z,160
2017-04-30T14:06:12.628Z,160
2017-04-30T14:07:34.780Z,155
2017-04-30T14:08:57.705Z,150
2017-04-30T14:10:20.286Z,150
2017-04-30T14:11:42.467Z,150
2017-04-30T14:13:04.629Z,150
2017-04-30T14:14:27.345Z,145
2017-04-30T14:15:49.558Z,145
2017-04-30T14:17:11.835Z,145
2017-04-30T14:18:34.385Z,150
2017-04-30T14:19:56.508Z,155
2017-04-30T14:21:18.728Z,160
2017-04-30T14:22:40.950Z,165
2017-04-30T14:24:03.432Z,160
2017-04-30T14:25:25.259Z,160
2017-04-30T14:26:47.127Z,165
2017-04-30T14:28:09.296Z,165
2017-04-30T14:29:30.837Z,175
2017-04-30T14:30:53.060Z,185
2017-04-30T14:32:15.266Z,190
2017-04-30T14:33:37.897Z,200
2017-04-30T14:34:59.734Z,200
2017-04-30T14:36:21.637Z,200
2017-04-30T14:37:43.549Z,205
2017-04-30T14:39:05.708Z,210
2017-04-30T14:40:28.189Z,215
2017-04-30T14:41:50.329Z,215
2017-04-30T14:43:12.816Z,210
2017-04-30T14:44:35.070Z,210
2017-04-30T14:45:56.933Z,210
2017-04-30T14:47:19.758Z,210
2017-04-30T14:48:41.727Z,200
2017-04-30T14:50:04.010Z,205
2017-04-30T14:51:25.558Z,200
2017-04-30T14:52:48.448Z,195
2017-04-30T14:54:10.285Z,190
2017-04-30T14:55:32.745Z,190
2017-04-30T14:56:55.008Z,185
2017-04-30T14:58:17.740Z,180
2017-04-30T14:59:39.937Z,175
2017-04-30T15:01:02.470Z,175
2017-04-30T15:02:24.320Z,170
2017-04-30T15:03:47.216Z,170
2017-04-30T15:05:09.717Z,170
2017-04-30T15:06:31.895Z,170
2017-04-30T15:07:54.363Z,165
2017-04-30T15:09:17.217Z,160
2017-04-30T15:10:39.071Z,165
2017-04-30T15:12:01.266Z,165
2017-04-30T15:13:23.286Z,170
2017-04-30T15:14:45.697Z,175
2017-04-30T15:16:08.177Z,185
2017-04-30T15:17:30.347Z,195
2017-04-30T15:18:52.517Z,210
2017-04-30T15:20:14.638Z,220
2017-04-30T15:21:36.586Z,225
2017-04-30T15:22:58.852Z,230
2017-04-30T15:24:20.407Z,235
2017-04-30T15:25:42.869Z,240
2017-04-30T15:27:04.418Z,235
2017-04-30T15:28:26.297Z,235
2017-04-30T15:29:47.576Z,225
2017-04-30T15:31:09.671Z,220
2017-04-30T15:32:31.209Z,215
2017-04-30T15:33:53.426Z,210
2017-04-30T15:35:15.599Z,200
2017-04-30T15:36:37.714Z,190
2017-04-30T15:37:59.563Z,180
2017-04-30T15:39:21.735Z,175
2017-04-30T15:40:43.924Z,170
2017-04-30T15:42:06.347Z,165
2017-04-30T15:43:28.198Z,160
2017-04-30T15:44:50.388Z,155
2017-04-30T15:46:12.585Z,155
2017-04-30T15:47:35.391Z,150
2017-04-30T15:48:57.893Z,150
2017-04-30T15:50:20.137Z,145
2017-04-30T15:51:41.362Z,150
2017-04-30T15:53:03.269Z,140
2017-04-30T15:54:25.647Z,140
2017-04-30T15:55:47.806Z,140
2017-04-30T15:57:09.969Z,140
2017-04-30T15:58:32.106Z,140
2017-04-30T15:59:54.564Z,135
2017-04-30T16:01:16.753Z,120
2017-04-30T16:02:38.688Z,115
2017-04-30T16:04:00.906Z,115
2017-04-30T16:05:23.096Z,110
2017-04-30T16:06:45.584Z,105
2017-04-30T16:08:07.470Z,105
2017-04-30T16:09:30.316Z,105
2017-04-30T16:10:52.495Z,100
2017-04-30T16:12:14.373Z,105
2017-04-30T16:13:35.638Z,105
2017-04-30T16:14:57.594Z,110
2017-04-30T16:16:19.450Z,120
2017-04-30T16:17:41.955Z,125
2017-04-30T16:19:04.137Z,130
2017-04-30T16:20:25.926Z,130
2017-04-30T16:21:48.238Z,135
2017-04-30T16:23:10.727Z,135
2017-04-30T16:24:33.246Z,130
2017-04-30T16:25:55.447Z,135
2017-04-30T16:27:18.051Z,140
2017-04-30T16:28:40.566Z,145
2017-04-30T16:30:02.560Z,150
2017-04-30T16:31:25.076Z,150
2017-04-30T16:32:46.707Z,140
2017-04-30T16:34:09.196Z,140
2017-04-30T16:35:31.479Z,140
2017-04-30T16:36:53.639Z,140
2017-04-30T16:38:16.141Z,140
2017-04-30T16:39:38.641Z,135
2017-04-30T16:41:00.919Z,135
2017-04-30T16:42:23.658Z,130
2017-04-30T16:43:45.832Z,135
2017-04-30T16:45:08.449Z,130
2017-04-30T16:46:30.938Z,130
2017-04-30T16:47:53.835Z,125
2017-04-30T16:49:15.798Z,125
2017-04-30T16:50:38.354Z,125
2017-04-30T16:52:00.509Z,120
2017-04-30T16:53:23.216Z,120
2017-04-30T16:54:44.501Z,125
2017-04-30T16:56:06.673Z,130
2017-04-30T16:57:28.834Z,125
2017-04-30T16:58:51.705Z,125
2017-04-30T17:00:13.896Z,125
2017-04-30T17:01:36.093Z,125
2017-04-30T17:02:57.968Z,125
2017-04-30T17:04:20.433Z,125
2017-04-30T17:05:42.301Z,125
2017-04-30T17:07:04.158Z,120
2017-04-30T17:08:26.680Z,120
2017-04-30T17:09:49.116Z,120
2017-04-30T17:11:11.048Z,115
2017-04-30T17:12:32.890Z,115
2017-04-30T17:13:54.749Z,110
2017-04-30T17:15:17.637Z,110
2017-04-30T17:16:40.096Z,110
2017-04-30T17:18:01.306Z,100
2017-04-30T17:19:23.157Z,105
2017-04-30T17:20:45.889Z,100
2017-04-30T17:22:08.067Z,100
2017-04-30T17:23:29.946Z,100
2017-04-30T17:24:52.117Z,100
2017-04-30T17:26:14.283Z,95
2017-04-30T17:27:36.773Z,95
2017-04-30T17:28:58.936Z,95
2017-04-30T17:30:21.537Z,95
2017-04-30T17:31:44.292Z,95
2017-04-30T17:33:06.466Z,90
2017-04-30T17:34:28.971Z,90
2017-04-30T17:35:51.447Z,90
2017-04-30T17:37:14.290Z,90
2017-04-30T17:38:36.898Z,90
2017-04-30T17:39:59.091Z,90
2017-04-30T17:41:21.270Z,90
2017-04-30T17:42:43.818Z,85
2017-04-30T17:44:06.008Z,85
2017-04-30T17:45:28.526Z,80
2017-04-30T17:46:50.690Z,80
2017-04-30T17:48:13.603Z,80
2017-04-30T17:49:35.770Z,75
2017-04-30T17:50:57.960Z,80
2017-04-30T17:52:20.282Z,75
2017-04-30T17:53:42.747Z,75
2017-04-30T17:55:04.965Z,70
2017-04-30T17:56:27.444Z,70
2017-04-30T17:57:49.682Z,70
2017-04-30T17:59:11.963Z,65
2017-04-30T18:00:34.153Z,65
2017-04-30T18:01:56.639Z,65
2017-04-30T18:03:18.841Z,60
2017-04-30T18:04:41.257Z,60
2017-04-30T18:06:03.223Z,60
2017-04-30T18:07:25.517Z,55
2017-04-30T18:08:47.387Z,55
2017-04-30T18:10:09.877Z,50
2017-04-30T18:11:32.057Z,50
2017-04-30T18:12:54.298Z,45
2017-04-30T18:14:16.481Z,45
2017-04-30T18:15:38.916Z,40
2017-04-30T18:17:01.096Z,40
2017-04-30T18:18:23.256Z,40
2017-04-30T18:19:45.596Z,40
2017-04-30T18:21:08.086Z,35
2017-04-30T18:22:30.287Z,35
2017-04-30T18:23:52.136Z,35
2017-04-30T18:25:13.682Z,35
2017-04-30T18:26:36.589Z,30
2017-04-30T18:27:58.809Z,30
2017-04-30T18:29:21.095Z,30
2017-04-30T18:30:43.026Z,25
2017-04-30T18:32:05.877Z,25
2017-04-30T18:33:27.870Z,25
2017-04-30T18:34:50.046Z,20
2017-04-30T18:36:12.328Z,20
2017-04-30T18:37:35.071Z,20
2017-04-30T18:38:57.238Z,15
2017-04-30T18:40:19.731Z,15
2017-04-30T18:41:41.586Z,15
2017-04-30T18:43:04.056Z,15
2017-04-30T18:44:25.918Z,10
2017-04-30T18:45:48.100Z,10
2017-04-30T18:47:10.378Z,10
2017-04-30T18:48:33.077Z,10
2017-04-30T18:49:55.688Z,5
2017-04-30T18:51:18.189Z,5
2017-04-30T18:52:40.720Z,5
2017-04-30T18:54:03.226Z,5
2017-04-30T18:55:25.707Z,5
2017-04-30T18:56:47.873Z,5
2017-04-30T18:58:10.028Z,0
2017-04-30T18:59:31.837Z,0
2017-04-30T19:00:53.767Z,0
2017-04-30T19:02:16.036Z,0
2017-04-30T19:03:38.439Z,0
2017-04-30T19:05:00.864Z,0
2017-04-30T19:06:22.727Z,0
2017-04-30T19:07:44.912Z,0
2017-04-30T19:09:07.068Z,0
2017-04-30T19:10:29.248Z,0
2017-04-30T19:11:51.508Z,0
2017-04-30T19:13:13.677Z,0